createdAt,value
2023-05-25T00:02:16.938Z,101875.31
2023-05-25T00:05:08.901Z,101880.13
2023-05-25T00:07:55.235Z,101890.00
2023-05-25T00:10:46.900Z,101888.00
2023-05-25T00:13:37.927Z,101897.13
2023-05-25T00:16:29.953Z,101896.03
2023-05-25T00:19:15.499Z,101888.94
2023-05-25T00:22:13.905Z,101882.34
2023-05-25T00:24:58.692Z,101886.22
2023-05-25T00:27:49.915Z,101882.25
2023-05-25T00:30:41.919Z,101886.94
2023-05-25T00:33:26.846Z,101880.19
2023-05-25T00:36:17.901Z,101879.97
2023-05-25T00:39:03.317Z,101883.22
2023-05-25T00:41:55.934Z,101876.84
2023-05-25T00:44:42.228Z,101885.00
2023-05-25T00:47:33.937Z,101879.97
2023-05-25T00:50:36.918Z,101879.84
2023-05-25T00:53:29.010Z,101873.72
2023-05-25T00:56:30.930Z,101881.56
2023-05-25T00:59:20.331Z,101888.50
2023-05-25T01:02:15.996Z,101906.88
2023-05-25T01:05:09.931Z,101895.91
2023-05-25T01:07:57.939Z,101901.13
2023-05-25T01:10:52.927Z,101894.13
2023-05-25T01:13:38.819Z,101897.72
2023-05-25T01:16:31.956Z,101892.69
2023-05-25T01:19:17.044Z,101897.13
2023-05-25T01:22:29.910Z,101892.34
2023-05-25T01:25:43.136Z,101900.34
2023-05-25T01:28:33.349Z,101904.69
2023-05-25T01:31:28.959Z,101908.03
2023-05-25T01:34:15.096Z,101905.16
2023-05-25T01:37:06.950Z,101908.03
2023-05-25T01:39:51.788Z,101899.06
2023-05-25T01:42:42.921Z,101897.66
2023-05-25T01:45:29.017Z,101908.59
2023-05-25T01:48:48.927Z,101896.94
2023-05-25T01:52:04.049Z,101898.03
2023-05-25T01:55:00.865Z,101900.38
2023-05-25T01:57:56.942Z,101901.81
2023-05-25T02:00:48.932Z,101906.47
2023-05-25T02:03:34.191Z,101909.31
2023-05-25T02:06:25.942Z,101899.25
2023-05-25T02:09:11.000Z,101909.38
2023-05-25T02:12:02.941Z,101905.44
2023-05-25T02:14:48.733Z,101907.56
2023-05-25T02:17:39.980Z,101903.94
2023-05-25T02:20:45.972Z,101899.53
2023-05-25T02:23:37.950Z,101901.66
2023-05-25T02:26:28.944Z,101899.84
2023-05-25T02:29:19.950Z,101894.56
2023-05-25T02:32:11.942Z,101896.53
2023-05-25T02:35:02.952Z,101902.22
2023-05-25T02:37:50.938Z,101903.72
2023-05-25T02:40:42.952Z,101903.28
2023-05-25T02:43:33.978Z,101900.38
2023-05-25T02:46:19.606Z,101908.06
2023-05-25T02:49:10.957Z,101911.41
2023-05-25T02:51:56.012Z,101911.41
2023-05-25T02:54:47.956Z,101905.44
2023-05-25T02:57:32.796Z,101911.81
2023-05-25T03:00:23.938Z,101923.81
2023-05-25T03:03:08.831Z,101915.09
2023-05-25T03:06:00.946Z,101917.72
2023-05-25T03:08:52.963Z,101910.56
2023-05-25T03:11:44.981Z,101911.31
2023-05-25T03:14:29.808Z,101923.66
2023-05-25T03:17:20.993Z,101923.44
2023-05-25T03:20:26.978Z,101924.03
2023-05-25T03:23:17.963Z,101930.56
2023-05-25T03:26:02.702Z,101927.31
2023-05-25T03:28:54.027Z,101936.66
2023-05-25T03:31:39.248Z,101935.78
2023-05-25T03:34:30.991Z,101939.28
2023-05-25T03:37:15.973Z,101937.38
2023-05-25T03:40:06.956Z,101937.72
2023-05-25T03:42:57.953Z,101934.94
2023-05-25T03:45:48.985Z,101938.09
2023-05-25T03:48:33.961Z,101951.91
2023-05-25T03:51:24.993Z,101947.56
2023-05-25T03:54:10.397Z,101943.94
2023-05-25T03:57:02.949Z,101946.50
2023-05-25T03:59:53.970Z,101961.34
2023-05-25T04:02:45.089Z,101956.56
2023-05-25T04:05:30.397Z,101971.22
2023-05-25T04:08:24.984Z,101969.38
2023-05-25T04:11:09.909Z,101974.66
2023-05-25T04:14:00.975Z,101974.81
2023-05-25T04:16:46.147Z,101972.41
2023-05-25T04:19:38.010Z,101975.22
2023-05-25T04:22:29.202Z,101982.69
2023-05-25T04:25:20.975Z,101986.16
2023-05-25T04:28:08.264Z,101993.53
2023-05-25T04:31:02.964Z,101999.66
2023-05-25T04:33:47.756Z,101997.94
2023-05-25T04:36:38.977Z,102005.06
2023-05-25T04:39:29.973Z,102009.03
2023-05-25T04:42:21.966Z,102004.03
2023-05-25T04:45:11.725Z,102005.97
2023-05-25T04:48:05.080Z,101998.31
2023-05-25T04:50:56.953Z,102004.69
2023-05-25T04:53:48.983Z,101996.41
2023-05-25T04:56:39.959Z,102004.59
2023-05-25T04:59:25.037Z,101998.81
2023-05-25T05:02:15.981Z,102003.38
2023-05-25T05:05:06.980Z,102007.72
2023-05-25T05:07:58.003Z,102013.13
2023-05-25T05:10:49.975Z,102005.16
2023-05-25T05:13:40.994Z,101994.72
2023-05-25T05:16:33.033Z,101997.59
2023-05-25T05:19:24.982Z,101994.56
2023-05-25T05:22:16.099Z,102002.97
2023-05-25T05:25:14.039Z,101996.69
2023-05-25T05:28:04.992Z,101994.47
2023-05-25T05:30:55.957Z,102004.31
2023-05-25T05:33:40.723Z,102000.91
2023-05-25T05:36:38.765Z,102001.34
2023-05-25T05:39:29.839Z,102004.09
2023-05-25T05:42:20.979Z,102003.19
2023-05-25T05:45:13.000Z,102010.78
2023-05-25T05:48:04.002Z,102003.19
2023-05-25T05:50:48.754Z,102000.31
2023-05-25T05:53:41.987Z,102007.25
2023-05-25T05:56:26.977Z,101998.13
2023-05-25T05:59:17.987Z,102016.34
2023-05-25T06:02:02.915Z,102012.22
2023-05-25T06:04:55.005Z,102014.31
2023-05-25T06:07:40.502Z,102016.66
2023-05-25T06:10:31.997Z,102018.94
2023-05-25T06:13:16.967Z,102021.84
2023-05-25T06:16:08.099Z,102019.53
2023-05-25T06:18:52.965Z,102022.53
2023-05-25T06:21:43.995Z,102017.81
2023-05-25T06:24:43.002Z,102022.69
2023-05-25T06:27:33.980Z,102023.22
2023-05-25T06:30:18.860Z,102023.50
2023-05-25T06:33:10.033Z,102013.16
2023-05-25T06:35:58.497Z,102017.53
2023-05-25T06:38:50.002Z,102012.50
2023-05-25T06:41:40.987Z,102019.63
2023-05-25T06:44:32.002Z,102016.69
2023-05-25T06:47:16.820Z,102021.56
2023-05-25T06:50:08.030Z,102021.72
2023-05-25T06:52:53.175Z,102021.69
2023-05-25T06:55:45.273Z,102024.66
2023-05-25T06:58:30.328Z,102035.25
2023-05-25T07:01:22.047Z,102038.19
2023-05-25T07:04:06.933Z,102023.31
2023-05-25T07:06:59.003Z,102030.34
2023-05-25T07:09:50.043Z,102031.06
2023-05-25T07:12:35.174Z,102031.03
2023-05-25T07:15:28.023Z,102028.56
2023-05-25T07:18:13.287Z,102025.31
2023-05-25T07:21:06.001Z,102020.69
2023-05-25T07:23:57.274Z,102019.94
2023-05-25T07:26:51.062Z,102021.63
2023-05-25T07:29:35.897Z,102029.91
2023-05-25T07:32:27.087Z,102028.19
2023-05-25T07:35:19.042Z,102014.97
2023-05-25T07:38:04.832Z,102019.09
2023-05-25T07:40:56.048Z,102015.75
2023-05-25T07:43:41.189Z,102014.19
2023-05-25T07:46:33.076Z,102017.72
2023-05-25T07:49:17.869Z,102016.94
2023-05-25T07:52:11.027Z,102008.09
2023-05-25T07:54:55.975Z,102012.34
2023-05-25T07:57:47.031Z,102017.47
2023-05-25T08:00:38.005Z,102008.19
2023-05-25T08:03:44.312Z,102007.75
2023-05-25T08:06:34.241Z,101996.22
2023-05-25T08:09:25.029Z,102015.22
2023-05-25T08:15:04.039Z,102010.25
2023-05-25T08:17:50.828Z,102001.22
2023-05-25T08:20:43.064Z,101998.56
2023-05-25T08:23:34.075Z,101999.22
2023-05-25T08:26:41.321Z,101990.69
2023-05-25T08:29:29.821Z,101995.00
2023-05-25T08:32:21.032Z,101991.06
2023-05-25T08:35:13.044Z,101999.78
2023-05-25T08:37:58.101Z,101997.34
2023-05-25T08:40:51.052Z,101989.19
2023-05-25T08:43:36.346Z,101992.66
2023-05-25T08:46:37.050Z,101998.97
2023-05-25T08:49:29.082Z,101990.38
2023-05-25T08:52:21.040Z,101988.81
2023-05-25T08:55:15.040Z,101986.97
2023-05-25T08:58:17.096Z,101984.03
2023-05-25T09:01:14.058Z,101995.44
2023-05-25T09:04:00.373Z,101985.75
2023-05-25T09:09:40.493Z,101990.84
2023-05-25T09:12:32.074Z,101978.22
2023-05-25T09:15:17.188Z,101989.09
2023-05-25T09:18:10.350Z,101996.09
2023-05-25T09:21:17.065Z,102005.63
2023-05-25T09:24:09.051Z,102001.81
2023-05-25T09:27:00.109Z,101999.84
2023-05-25T09:29:50.856Z,102004.31
2023-05-25T09:32:42.132Z,101999.44
2023-05-25T09:35:27.581Z,101997.59
2023-05-25T09:38:21.219Z,101988.97
2023-05-25T09:41:06.649Z,101996.09
2023-05-25T09:44:06.664Z,101982.97
2023-05-25T09:46:56.088Z,101995.53
2023-05-25T09:49:49.069Z,101998.00
2023-05-25T09:52:33.984Z,101997.25
2023-05-25T09:55:25.068Z,101994.69
2023-05-25T09:58:17.109Z,101991.94
2023-05-25T10:01:08.110Z,101989.81
2023-05-25T10:04:05.214Z,101991.69
2023-05-25T10:06:58.088Z,101990.88
2023-05-25T10:09:45.938Z,101990.16
2023-05-25T10:12:38.110Z,101990.69
2023-05-25T10:15:23.600Z,101996.13
2023-05-25T10:18:16.100Z,101996.94
2023-05-25T10:21:22.094Z,102001.31
2023-05-25T10:24:25.107Z,101991.97
2023-05-25T10:27:26.290Z,101990.06
2023-05-25T10:30:21.099Z,101995.00
2023-05-25T10:33:06.329Z,101983.28
2023-05-25T10:36:09.070Z,101989.53
2023-05-25T10:39:02.105Z,101981.91
2023-05-25T10:41:55.091Z,101984.41
2023-05-25T10:44:48.122Z,101989.03
2023-05-25T10:47:42.115Z,101984.91
2023-05-25T10:50:34.122Z,101983.88
2023-05-25T10:53:21.156Z,101980.28
2023-05-25T10:56:15.097Z,101978.16
2023-05-25T10:59:00.287Z,101977.75
2023-05-25T11:01:58.148Z,101969.22
2023-05-25T11:04:51.117Z,101985.56
2023-05-25T11:08:21.190Z,101975.41
2023-05-25T11:11:13.128Z,101976.00
2023-05-25T11:14:08.111Z,101974.66
2023-05-25T11:17:14.500Z,101976.72
2023-05-25T11:20:09.127Z,101977.88
2023-05-25T11:23:30.141Z,101976.69
2023-05-25T11:26:21.842Z,101975.50
2023-05-25T11:29:20.147Z,101973.28
2023-05-25T11:32:12.126Z,101969.56
2023-05-25T11:34:58.084Z,101976.50
2023-05-25T11:37:57.130Z,101971.00
2023-05-25T11:40:42.081Z,101975.00
2023-05-25T11:43:34.168Z,101961.31
2023-05-25T11:46:26.176Z,101959.81
2023-05-25T11:49:17.147Z,101961.78
2023-05-25T11:52:15.160Z,101968.44
2023-05-25T11:55:00.338Z,101956.66
2023-05-25T11:57:52.143Z,101972.22
2023-05-25T12:00:37.129Z,101958.66
2023-05-25T12:03:38.279Z,101951.50
2023-05-25T12:06:32.176Z,101960.34
2023-05-25T12:09:22.066Z,101959.13
2023-05-25T12:12:14.145Z,101953.69
2023-05-25T12:14:59.192Z,101968.31
2023-05-25T12:18:06.250Z,101958.44
2023-05-25T12:20:58.510Z,101961.13
2023-05-25T12:23:57.136Z,101948.81
2023-05-25T12:26:48.842Z,101968.34
2023-05-25T12:29:51.147Z,101959.91
2023-05-25T12:33:00.964Z,101953.34
2023-05-25T12:35:55.154Z,101956.66
2023-05-25T12:38:47.146Z,101963.59
2023-05-25T12:41:32.244Z,101963.25
2023-05-25T12:44:32.161Z,101967.03
2023-05-25T12:47:23.282Z,101968.88
2023-05-25T12:50:20.165Z,101961.63
2023-05-25T12:53:11.141Z,101959.66
2023-05-25T12:56:10.162Z,101976.78
2023-05-25T12:58:55.054Z,101963.53
2023-05-25T13:01:47.168Z,101959.84
2023-05-25T13:04:32.338Z,101966.78
2023-05-25T13:07:24.161Z,101966.38
2023-05-25T13:10:16.205Z,101960.84
2023-05-25T13:13:01.963Z,101962.75
2023-05-25T13:15:54.187Z,101965.66
2023-05-25T13:18:39.993Z,101962.19
2023-05-25T13:21:31.166Z,101957.00
2023-05-25T13:24:29.170Z,101958.53
2023-05-25T13:27:14.193Z,101957.69
2023-05-25T13:30:05.211Z,101960.91
2023-05-25T13:32:51.988Z,101967.63
2023-05-25T13:35:48.179Z,101967.66
2023-05-25T13:38:34.566Z,101961.19
2023-05-25T13:41:26.183Z,101965.13
2023-05-25T13:44:13.678Z,101962.44
2023-05-25T13:47:07.243Z,101962.38
2023-05-25T13:49:59.172Z,101954.41
2023-05-25T13:52:50.187Z,101955.78
2023-05-25T13:55:42.328Z,101958.16
2023-05-25T13:58:27.445Z,101949.19
2023-05-25T14:01:19.334Z,101964.25
2023-05-25T14:04:04.680Z,101948.81
2023-05-25T14:06:56.213Z,101952.38
2023-05-25T14:09:41.484Z,101951.00
2023-05-25T14:12:33.210Z,101943.94
2023-05-25T14:15:25.200Z,101946.25
2023-05-25T14:18:10.443Z,101950.56
2023-05-25T14:21:02.181Z,101939.91
2023-05-25T14:23:53.224Z,101937.84
2023-05-25T14:26:44.198Z,101941.44
2023-05-25T14:29:36.242Z,101945.94
2023-05-25T14:32:21.154Z,101938.22
2023-05-25T14:35:13.210Z,101945.81
2023-05-25T14:37:58.395Z,101940.19
2023-05-25T14:40:50.198Z,101937.75
2023-05-25T14:43:41.190Z,101935.69
2023-05-25T14:46:33.237Z,101938.22
2023-05-25T14:49:18.440Z,101934.06
2023-05-25T14:52:10.221Z,101942.19
2023-05-25T14:54:55.530Z,101941.44
2023-05-25T14:57:47.234Z,101942.78
2023-05-25T15:00:32.267Z,101938.50
2023-05-25T15:03:24.331Z,101940.06
2023-05-25T15:06:09.514Z,101934.03
2023-05-25T15:09:01.209Z,101922.03
2023-05-25T15:11:52.205Z,101927.53
2023-05-25T15:14:39.938Z,101936.22
2023-05-25T15:17:31.246Z,101932.47
2023-05-25T15:20:16.043Z,101927.56
2023-05-25T15:23:14.201Z,101919.81
2023-05-25T15:26:07.491Z,101923.97
2023-05-25T15:28:59.198Z,101931.34
2023-05-25T15:31:44.045Z,101927.59
2023-05-25T15:34:35.212Z,101923.47
2023-05-25T15:37:20.176Z,101924.06
2023-05-25T15:40:12.219Z,101919.84
2023-05-25T15:43:04.238Z,101912.81
2023-05-25T15:45:55.261Z,101916.78
2023-05-25T15:48:46.246Z,101912.63
2023-05-25T15:51:39.221Z,101912.19
2023-05-25T15:54:24.093Z,101911.41
2023-05-25T15:57:15.236Z,101915.84
2023-05-25T16:00:00.463Z,101910.84
2023-05-25T16:02:52.286Z,101917.19
2023-05-25T16:05:37.416Z,101918.25
2023-05-25T16:08:29.242Z,101905.38
2023-05-25T16:11:13.992Z,101907.75
2023-05-25T16:14:05.217Z,101910.13
2023-05-25T16:16:56.257Z,101910.72
2023-05-25T16:19:41.218Z,101913.00
2023-05-25T16:22:39.242Z,101919.78
2023-05-25T16:25:37.239Z,101911.03
2023-05-25T16:28:22.600Z,101915.97
2023-05-25T16:31:14.235Z,101913.47
2023-05-25T16:34:05.228Z,101915.69
2023-05-25T16:36:57.238Z,101915.13
2023-05-25T16:39:49.228Z,101917.19
2023-05-25T16:42:41.249Z,101898.16
2023-05-25T16:45:33.234Z,101912.16
2023-05-25T16:48:19.420Z,101912.50
2023-05-25T16:51:12.240Z,101913.25
2023-05-25T16:53:57.151Z,101916.38
2023-05-25T16:56:48.257Z,101912.50
2023-05-25T16:59:33.006Z,101921.31
2023-05-25T17:02:24.362Z,101914.75
2023-05-25T17:05:09.900Z,101925.03
2023-05-25T17:08:01.256Z,101924.38
2023-05-25T17:10:49.152Z,101915.63
2023-05-25T17:13:42.227Z,101921.50
2023-05-25T17:16:33.291Z,101921.84
2023-05-25T17:19:18.653Z,101924.81
2023-05-25T17:22:10.244Z,101924.06
2023-05-25T17:25:10.247Z,101922.22
2023-05-25T17:27:55.320Z,101921.44
2023-05-25T17:30:48.584Z,101921.47
2023-05-25T17:33:33.658Z,101922.63
2023-05-25T17:36:25.265Z,101933.84
2023-05-25T17:39:10.161Z,101929.84
2023-05-25T17:42:02.287Z,101920.84
2023-05-25T17:44:47.261Z,101927.88
2023-05-25T17:47:39.373Z,101928.88
2023-05-25T17:50:31.256Z,101935.56
2023-05-25T17:53:23.277Z,101932.25
2023-05-25T17:56:15.270Z,101932.91
2023-05-25T17:59:00.975Z,101932.44
2023-05-25T18:01:52.295Z,101938.47
2023-05-25T18:04:37.087Z,101922.41
2023-05-25T18:07:28.265Z,101930.59
2023-05-25T18:10:21.260Z,101932.09
2023-05-25T18:13:12.282Z,101933.47
2023-05-25T18:15:57.165Z,101935.13
2023-05-25T18:18:48.274Z,101935.13
2023-05-25T18:21:33.745Z,101928.59
2023-05-25T18:24:32.271Z,101930.78
2023-05-25T18:27:24.279Z,101931.47
2023-05-25T18:30:16.273Z,101938.16
2023-05-25T18:33:01.188Z,101930.16
2023-05-25T18:35:53.294Z,101935.31
2023-05-25T18:38:38.044Z,101934.66
2023-05-25T18:41:30.302Z,101940.16
2023-05-25T18:44:15.084Z,101945.69
2023-05-25T18:47:06.280Z,101948.34
2023-05-25T18:49:51.646Z,101947.31
2023-05-25T18:52:43.300Z,101948.16
2023-05-25T18:55:29.367Z,101945.81
2023-05-25T18:58:21.318Z,101951.00
2023-05-25T19:01:06.082Z,101952.66
2023-05-25T19:03:58.825Z,101951.84
2023-05-25T19:06:50.329Z,101952.97
2023-05-25T19:09:35.110Z,101954.13
2023-05-25T19:12:26.304Z,101959.13
2023-05-25T19:15:11.145Z,101953.97
2023-05-25T19:18:03.348Z,101950.97
2023-05-25T19:20:48.415Z,101965.25
2023-05-25T19:23:46.286Z,101963.06
2023-05-25T19:26:31.353Z,101959.00
2023-05-25T19:29:23.289Z,101976.19
2023-05-25T19:32:08.302Z,101977.72
2023-05-25T19:35:00.312Z,101982.50
2023-05-25T19:37:45.453Z,101984.75
2023-05-25T19:40:37.306Z,101990.72
2023-05-25T19:43:22.321Z,101986.81
2023-05-25T19:46:13.366Z,101984.63
2023-05-25T19:48:58.358Z,101987.03
2023-05-25T19:51:49.305Z,101991.19
2023-05-25T19:54:34.588Z,101984.94
2023-05-25T19:57:27.328Z,101993.16
2023-05-25T20:00:24.933Z,101998.47
2023-05-25T20:03:18.447Z,101997.22
2023-05-25T20:06:03.466Z,101991.94
2023-05-25T20:08:55.316Z,101992.09
2023-05-25T20:11:41.459Z,102001.25
2023-05-25T20:14:33.292Z,102006.06
2023-05-25T20:17:18.070Z,102011.91
2023-05-25T20:20:11.389Z,102014.19
2023-05-25T20:23:03.373Z,102004.00
2023-05-25T20:26:01.308Z,102006.50
2023-05-25T20:28:46.534Z,102005.13
2023-05-25T20:31:37.354Z,101999.34
2023-05-25T20:34:22.047Z,102005.13
2023-05-25T20:37:13.322Z,102011.91
2023-05-25T20:40:04.302Z,102004.22
2023-05-25T20:42:56.322Z,102013.50
2023-05-25T20:45:41.190Z,102024.25
2023-05-25T20:48:32.304Z,102021.78
2023-05-25T20:51:17.223Z,102026.06
2023-05-25T20:54:09.315Z,102026.06
2023-05-25T20:56:54.062Z,102025.66
2023-05-25T20:59:45.311Z,102027.78
2023-05-25T21:02:30.598Z,102040.00
2023-05-25T21:05:22.362Z,102028.84
2023-05-25T21:08:07.757Z,102033.91
2023-05-25T21:10:59.333Z,102037.59
2023-05-25T21:13:44.125Z,102037.50
2023-05-25T21:16:35.410Z,102035.56
2023-05-25T21:19:20.190Z,102035.69
2023-05-25T21:22:11.333Z,102041.03
2023-05-25T21:25:03.378Z,102041.47
2023-05-25T21:27:56.991Z,102042.72
2023-05-25T21:30:42.264Z,102044.47
2023-05-25T21:33:35.340Z,102037.31
2023-05-25T21:36:27.341Z,102045.16
2023-05-25T21:39:19.331Z,102043.91
2023-05-25T21:42:04.443Z,102050.81
2023-05-25T21:44:56.331Z,102050.94
2023-05-25T21:47:41.093Z,102047.44
2023-05-25T21:50:32.334Z,102049.13
2023-05-25T21:53:18.186Z,102051.09
2023-05-25T21:56:10.358Z,102049.25
2023-05-25T21:59:02.321Z,102046.63
2023-05-25T22:01:53.367Z,102050.00
2023-05-25T22:04:38.733Z,102046.34
2023-05-25T22:07:30.344Z,102047.91
2023-05-25T22:10:21.333Z,102054.72
2023-05-25T22:13:06.378Z,102056.53
2023-05-25T22:15:57.350Z,102053.88
2023-05-25T22:18:42.060Z,102061.72
2023-05-25T22:21:33.352Z,102063.25
2023-05-25T22:24:31.370Z,102062.69
2023-05-25T22:27:22.358Z,102064.78
2023-05-25T22:30:07.886Z,102072.75
2023-05-25T22:32:59.424Z,102062.81
2023-05-25T22:35:44.283Z,102066.72
2023-05-25T22:38:35.337Z,102076.91
2023-05-25T22:41:20.163Z,102076.16
2023-05-25T22:44:11.349Z,102078.41
2023-05-25T22:46:56.203Z,102075.28
2023-05-25T22:49:48.358Z,102078.63
2023-05-25T22:52:33.436Z,102084.03
2023-05-25T22:55:24.366Z,102095.91
2023-05-25T22:58:09.537Z,102095.78
2023-05-25T23:01:01.348Z,102097.63
2023-05-25T23:03:46.407Z,102089.09
2023-05-25T23:06:39.362Z,102098.50
2023-05-25T23:09:30.357Z,102089.84
2023-05-25T23:12:15.486Z,102094.13
2023-05-25T23:15:07.354Z,102090.19
2023-05-25T23:17:59.367Z,102084.78
2023-05-25T23:20:51.364Z,102087.63
2023-05-25T23:23:49.360Z,102097.59
2023-05-25T23:26:40.446Z,102087.63
2023-05-25T23:29:31.360Z,102086.13
2023-05-25T23:32:16.194Z,102091.44
2023-05-25T23:35:07.386Z,102096.16
2023-05-25T23:37:58.350Z,102089.56
2023-05-25T23:40:43.257Z,102087.25
2023-05-25T23:43:35.349Z,102084.03
2023-05-25T23:46:26.416Z,102086.78
2023-05-25T23:49:11.200Z,102090.94
2023-05-25T23:52:02.406Z,102091.72
2023-05-25T23:54:53.369Z,102092.75
2023-05-25T23:57:39.340Z,102093.72
